Time;durP1;ratioP1;P1;durP2;ratioP2;P2;SDS_P1;SDS_P2;PMS_P1;PMS_P2;Temp;Humidity;BMP_temperature;BMP_pressure;BME280_temperature;BME280_humidity;BME280_pressure;Samples;Min_cycle;Max_cycle;Signal;HPM_P1;HPM_P2
2023/01/30 00:00:53;;;;;;;0.25;0.25;;;;;;;8.86;74.13;101853.44;5101230;28;20066;-80
2023/01/30 00:03:20;;;;;;;0.15;0.15;;;;;;;8.96;74.04;101860.53;5109588;28;20388;-81
2023/01/30 00:05:47;;;;;;;0.35;0.35;;;;;;;9.13;72.97;101857.03;5109262;28;20024;-81
2023/01/30 00:08:13;;;;;;;0.10;0.10;;;;;;;9.17;72.92;101859.69;5106315;28;20085;-81
2023/01/30 00:10:39;;;;;;;0.98;0.93;;;;;;;9.31;72.52;101856.19;5107338;28;20024;-81
2023/01/30 00:13:05;;;;;;;0.30;0.30;;;;;;;9.34;72.28;101857.06;5110363;28;20035;-82
2023/01/30 00:15:32;;;;;;;0.30;0.30;;;;;;;9.32;72.36;101835.03;5110911;28;20374;-80
2023/01/30 00:17:58;;;;;;;0.55;0.55;;;;;;;9.48;71.86;101824.47;5106149;28;20188;-81
2023/01/30 00:20:24;;;;;;;0.10;0.10;;;;;;;9.52;71.73;101823.56;5099916;28;20043;-81
2023/01/30 00:22:50;;;;;;;0.57;0.57;;;;;;;9.51;71.53;101830.63;5107972;28;20028;-80
2023/01/30 00:25:16;;;;;;;0.73;0.73;;;;;;;9.57;71.42;101837.72;5119351;28;20028;-80
2023/01/30 00:27:43;;;;;;;0.17;0.17;;;;;;;9.60;71.39;101840.34;5106104;28;20027;-79
2023/01/30 00:30:10;;;;;;;0.10;0.10;;;;;;;9.65;71.10;101820.03;5095914;28;20046;-81
2023/01/30 00:32:38;;;;;;;0.10;0.10;;;;;;;9.68;70.77;101813.88;5092835;28;20456;-83
2023/01/30 00:35:06;;;;;;;0.20;0.20;;;;;;;9.66;70.67;101795.34;5094278;28;20020;-81
2023/01/30 00:37:32;;;;;;;0.85;0.85;;;;;;;9.66;70.86;101789.19;5097859;28;20032;-82
2023/01/30 00:39:58;;;;;;;0.10;0.10;;;;;;;9.66;70.80;101813.00;5091174;28;20075;-81
2023/01/30 00:47:58;;;;;;;0.30;0.30;;;;;;;9.70;70.20;101786.53;5090820;28;20043;-82
2023/01/30 00:50:41;;;;;;;0.10;0.10;;;;;;;9.74;70.45;101771.53;5081802;28;20029;-82
2023/01/30 00:53:08;;;;;;;0.10;0.10;;;;;;;9.70;70.47;101790.94;5087427;28;20362;-80
2023/01/30 00:55:34;;;;;;;0.10;0.10;;;;;;;9.77;70.33;101768.00;5096629;28;20032;-79
2023/01/30 00:58:01;;;;;;;0.47;0.47;;;;;;;9.81;70.10;101777.72;5098552;28;20080;-80
2023/01/30 01:00:27;;;;;;;0.08;0.08;;;;;;;9.72;69.96;101778.59;5099884;28;20036;-81
2023/01/30 01:02:53;;;;;;;0.25;0.25;;;;;;;9.79;70.04;101796.22;5098742;28;20029;-80
2023/01/30 01:05:19;;;;;;;0.13;0.13;;;;;;;9.78;69.76;101775.03;5095608;28;20115;-80
2023/01/30 01:07:45;;;;;;;0.10;0.10;;;;;;;9.79;69.98;101753.00;5099086;28;20035;-80
2023/01/30 01:10:15;;;;;;;0.10;0.10;;;;;;;9.76;69.78;101742.41;5090310;28;20027;-80
2023/01/30 01:12:43;;;;;;;0.10;0.10;;;;;;;9.81;69.68;101741.53;5092971;28;20024;-80
2023/01/30 01:15:11;;;;;;;0.22;0.22;;;;;;;9.83;69.47;101718.59;5089834;28;20035;-79
2023/01/30 01:17:38;;;;;;;0.40;0.40;;;;;;;9.81;69.17;101720.34;5096022;28;20040;-79
2023/01/30 01:20:05;;;;;;;0.77;0.77;;;;;;;9.79;69.38;101711.50;5094156;28;20036;-80
2023/01/30 01:22:31;;;;;;;0.17;0.17;;;;;;;9.80;69.08;101713.28;5098733;28;20032;-79
2023/01/30 01:24:57;;;;;;;35.20;2.08;;;;;;;9.69;69.15;101705.41;5099273;28;20035;-81
2023/01/30 01:27:23;;;;;;;0.43;0.43;;;;;;;9.76;68.97;101716.84;5100895;28;20032;-80
2023/01/30 01:29:49;;;;;;;0.10;0.10;;;;;;;9.78;69.06;101719.47;5089058;28;20035;-81
2023/01/30 01:32:15;;;;;;;0.10;0.10;;;;;;;9.85;68.70;101718.56;5088933;28;20123;-82
2023/01/30 01:34:41;;;;;;;0.17;0.17;;;;;;;9.78;68.68;101720.38;5088460;28;20016;-81
2023/01/30 01:37:08;;;;;;;2.70;2.45;;;;;;;9.78;68.71;101733.59;5091624;28;20052;-81
2023/01/30 01:42:21;;;;;;;0.10;0.10;;;;;;;9.74;68.48;101730.97;5078731;28;20066;-81
2023/01/30 01:47:40;;;;;;;0.10;0.10;;;;;;;9.74;68.45;101720.38;5139075;27;1213709;-81
2023/01/30 01:50:14;;;;;;;0.10;0.10;;;;;;;9.75;68.41;101716.84;5141114;27;20500;-79
2023/01/30 01:52:41;;;;;;;0.10;0.10;;;;;;;9.68;68.55;101724.81;5130803;28;20031;-79
2023/01/30 01:55:07;;;;;;;0.10;0.10;;;;;;;9.81;68.20;101725.63;5149421;28;20038;-79
2023/01/30 01:57:41;;;;;;;0.20;0.20;;;;;;;9.70;68.97;101716.84;5148730;27;20098;-81
2023/01/30 02:00:12;;;;;;;0.10;0.10;;;;;;;9.62;69.00;101714.22;5136895;27;20035;-82
2023/01/30 02:02:46;;;;;;;0.10;0.10;;;;;;;9.54;69.47;101722.19;5126297;28;20051;-82
2023/01/30 02:05:16;;;;;;;0.60;0.60;;;;;;;9.44;70.31;101725.69;5132970;28;20043;-80
2023/01/30 02:07:51;;;;;;;0.10;0.10;;;;;;;9.36;70.87;101714.28;5136603;28;20047;-80
2023/01/30 02:10:21;;;;;;;0.10;0.10;;;;;;;9.28;70.98;101710.75;5134179;27;20152;-81
2023/01/30 02:12:49;;;;;;;2.10;1.98;;;;;;;9.18;72.21;101728.38;5134675;28;20035;-83
2023/01/30 02:15:18;;;;;;;0.10;0.10;;;;;;;9.14;72.11;101737.19;5141068;28;20043;-80
2023/01/30 02:17:44;;;;;;;0.17;0.17;;;;;;;9.04;72.89;101720.44;5137676;28;20053;-83
2023/01/30 02:23:42;;;;;;;1.60;1.50;;;;;;;9.04;72.81;101721.31;5071275;27;20440;-82
2023/01/30 02:29:29;;;;;;;0.10;0.10;;;;;;;9.10;72.67;101704.56;5110874;27;1173789;-84
2023/01/30 02:32:25;;;;;;;0.82;0.82;;;;;;;9.11;72.76;101698.41;5127396;28;20388;-84
2023/01/30 02:38:16;;;;;;;0.20;0.20;;;;;;;9.06;72.55;101682.53;5109053;27;20396;-80
2023/01/30 02:46:30;;;;;;;0.20;0.20;;;;;;;9.03;73.09;101690.50;5111775;27;1193149;-82
2023/01/30 02:49:35;;;;;;;0.10;0.10;;;;;;;9.04;73.54;101688.72;5118105;28;20208;-82
2023/01/30 02:52:04;;;;;;;0.10;0.10;;;;;;;9.08;73.11;101690.47;5118969;28;20055;-82
2023/01/30 02:54:30;;;;;;;0.20;0.20;;;;;;;9.09;73.47;101686.94;5118745;28;20106;-81
2023/01/30 02:56:58;;;;;;;0.10;0.10;;;;;;;8.98;73.54;101705.44;5109010;28;20042;-80
2023/01/30 03:02:30;;;;;;;0.10;0.10;;;;;;;9.10;73.79;101685.16;5117853;27;20732;-80
2023/01/30 03:05:36;;;;;;;0.73;0.73;;;;;;;9.12;73.29;101689.59;5096285;28;20042;-83
2023/01/30 03:08:18;;;;;;;0.10;0.10;;;;;;;9.14;73.23;101684.31;5091276;28;20137;-82
2023/01/30 03:10:58;;;;;;;0.38;0.38;;;;;;;9.17;73.41;101684.28;5084633;28;20485;-81
2023/01/30 03:16:12;;;;;;;0.38;0.38;;;;;;;9.10;73.80;101687.81;5113704;27;20478;-82
2023/01/30 03:18:41;;;;;;;0.20;0.20;;;;;;;9.15;73.64;101680.78;5107609;28;20028;-80
2023/01/30 03:21:08;;;;;;;0.10;0.10;;;;;;;9.15;73.21;101680.78;5100048;28;20025;-82
2023/01/30 03:23:34;;;;;;;0.60;0.60;;;;;;;9.13;73.44;101677.25;5099481;28;20101;-80
2023/01/30 03:26:03;;;;;;;0.40;0.40;;;;;;;9.20;73.37;101679.00;5102849;28;20024;-80
2023/01/30 03:28:30;;;;;;;0.17;0.17;;;;;;;9.23;73.13;101679.00;5099908;28;20054;-82
2023/01/30 03:30:56;;;;;;;0.50;0.50;;;;;;;9.19;72.98;101675.47;5108102;27;20048;-82
2023/01/30 03:33:22;;;;;;;0.40;0.40;;;;;;;9.24;73.28;101672.84;5101566;28;20032;-81
2023/01/30 03:35:49;;;;;;;0.10;0.10;;;;;;;9.26;73.00;101689.59;5102626;28;20043;-81
2023/01/30 03:38:17;;;;;;;0.10;0.10;;;;;;;9.31;72.64;101674.59;5103281;28;20092;-82
2023/01/30 03:40:43;;;;;;;0.20;0.20;;;;;;;9.41;72.12;101682.50;5094364;28;20028;-81
2023/01/30 03:43:10;;;;;;;0.08;0.08;;;;;;;9.38;72.14;101689.56;5098837;28;20036;-82
2023/01/30 03:45:39;;;;;;;0.13;0.13;;;;;;;9.36;71.84;101670.19;5095424;28;20085;-82
2023/01/30 03:48:05;;;;;;;0.57;0.57;;;;;;;9.37;72.15;101661.38;5089837;28;20479;-83
2023/01/30 03:50:31;;;;;;;0.10;0.10;;;;;;;9.40;71.84;101668.41;5087927;28;20028;-82
2023/01/30 03:52:57;;;;;;;0.10;0.10;;;;;;;9.46;72.26;101664.84;5091902;28;20033;-82
2023/01/30 03:55:23;;;;;;;0.22;0.22;;;;;;;9.49;71.47;101684.25;5091980;28;20048;-82
2023/01/30 03:57:55;;;;;;;0.10;0.10;;;;;;;9.47;71.36;101662.22;5095687;28;21588;-84
2023/01/30 04:00:22;;;;;;;0.20;0.20;;;;;;;9.47;71.50;101674.56;5089768;28;20031;-82
2023/01/30 04:02:48;;;;;;;0.20;0.20;;;;;;;9.43;71.61;101664.88;5107963;28;20025;-82
2023/01/30 04:05:14;;;;;;;0.13;0.13;;;;;;;9.51;71.64;101668.41;5102272;28;20035;-82
2023/01/30 04:07:40;;;;;;;0.10;0.10;;;;;;;9.46;71.65;101671.03;5098492;28;20058;-82
2023/01/30 04:10:07;;;;;;;0.10;0.10;;;;;;;9.44;71.65;101683.38;5095605;28;20058;-82
2023/01/30 04:12:33;;;;;;;0.10;0.10;;;;;;;9.52;71.26;101676.31;5091830;28;20036;-81
2023/01/30 04:14:59;;;;;;;0.20;0.20;;;;;;;9.48;71.50;101663.09;5095837;28;20382;-81
2023/01/30 04:17:25;;;;;;;0.10;0.10;;;;;;;9.48;71.55;101668.38;5100204;28;20024;-82
2023/01/30 04:19:51;;;;;;;0.10;0.10;;;;;;;9.57;71.47;101657.81;5098658;28;20034;-82
2023/01/30 04:22:17;;;;;;;0.10;0.10;;;;;;;9.52;71.48;101673.69;5098804;28;20033;-81
2023/01/30 04:24:43;;;;;;;0.10;0.10;;;;;;;9.44;71.27;101669.28;5097235;28;20024;-82
2023/01/30 04:27:10;;;;;;;0.10;0.10;;;;;;;9.38;71.55;101668.41;5090157;28;20040;-82
2023/01/30 04:29:38;;;;;;;0.17;0.17;;;;;;;9.45;71.41;101684.28;5087000;28;20025;-81
2023/01/30 04:32:04;;;;;;;0.10;0.10;;;;;;;9.41;71.09;101666.63;5081271;28;20032;-81
2023/01/30 04:34:30;;;;;;;0.10;0.10;;;;;;;9.31;71.33;101679.88;5087845;28;20028;-80
2023/01/30 04:36:56;;;;;;;0.20;0.20;;;;;;;9.28;71.10;101676.34;5085557;28;20162;-81
2023/01/30 04:39:22;;;;;;;0.20;0.20;;;;;;;9.33;70.74;101688.72;5093613;28;20037;-81
2023/01/30 04:41:49;;;;;;;0.10;0.10;;;;;;;9.34;70.99;101702.81;5089500;28;20052;-80
2023/01/30 04:44:15;;;;;;;0.10;0.10;;;;;;;9.37;70.85;101703.69;5095029;28;20031;-81
2023/01/30 04:46:41;;;;;;;0.20;0.20;;;;;;;9.33;70.03;101687.81;5090383;28;20059;-83
2023/01/30 04:49:10;;;;;;;0.20;0.20;;;;;;;9.46;68.68;101696.59;5086025;28;20028;-83
2023/01/30 04:51:40;;;;;;;0.10;0.10;;;;;;;9.39;67.83;101709.88;5080801;28;20029;-81
2023/01/30 04:54:09;;;;;;;0.65;0.60;;;;;;;9.31;65.92;101730.13;5070319;28;20110;-81
2023/01/30 04:56:35;;;;;;;0.10;0.10;;;;;;;9.45;65.05;101721.31;5068782;28;20035;-80
2023/01/30 04:59:01;;;;;;;0.10;0.10;;;;;;;9.50;64.21;101714.25;5066522;28;20066;-82
2023/01/30 05:01:36;;;;;;;1.40;1.30;;;;;;;9.60;63.98;101705.41;5068309;28;20098;-81
2023/01/30 05:04:04;;;;;;;0.10;0.10;;;;;;;9.60;64.33;101715.97;5061149;28;20029;-81
2023/01/30 05:06:31;;;;;;;0.10;0.10;;;;;;;9.63;63.60;101700.13;5063147;28;20694;-81
2023/01/30 05:08:58;;;;;;;0.10;0.10;;;;;;;9.70;63.78;101696.53;5065435;28;20319;-81
2023/01/30 05:11:26;;;;;;;3.08;2.70;;;;;;;9.58;64.03;101701.00;5057336;28;20395;-80
2023/01/30 05:13:52;;;;;;;0.10;0.10;;;;;;;9.49;64.22;101702.75;5069400;28;20059;-78
2023/01/30 05:16:20;;;;;;;0.10;0.10;;;;;;;9.52;63.96;101707.16;5071459;28;20250;-80
2023/01/30 05:18:46;;;;;;;0.10;0.10;;;;;;;9.43;64.28;101716.00;5073246;28;20032;-82
2023/01/30 05:21:15;;;;;;;0.20;0.20;;;;;;;9.44;63.96;101719.53;5084142;28;20039;-82
2023/01/30 05:23:41;;;;;;;0.10;0.10;;;;;;;9.41;64.03;101724.81;5093536;28;20024;-81
2023/01/30 05:26:08;;;;;;;0.10;0.10;;;;;;;9.28;64.56;101729.25;5084294;28;20101;-83
2023/01/30 05:28:34;;;;;;;0.10;0.10;;;;;;;9.29;64.00;101725.72;5084167;28;20047;-81
2023/01/30 05:31:09;;;;;;;0.10;0.10;;;;;;;9.35;63.70;101726.59;5083088;28;20031;-81
2023/01/30 05:33:35;;;;;;;0.05;0.05;;;;;;;9.34;64.08;101713.38;5082685;28;20040;-81
2023/01/30 05:36:02;;;;;;;0.10;0.10;;;;;;;9.22;63.97;101723.09;5079504;28;20029;-81
2023/01/30 05:38:28;;;;;;;0.10;0.10;;;;;;;9.10;64.41;101717.78;5073812;28;20052;-82
2023/01/30 05:41:02;;;;;;;0.10;0.10;;;;;;;9.10;64.25;101722.19;5082658;28;20051;-81
2023/01/30 05:43:29;;;;;;;0.10;0.10;;;;;;;9.05;64.71;101736.28;5086712;28;20035;-79
2023/01/30 05:45:56;;;;;;;1.40;0.73;;;;;;;9.00;64.88;101739.81;5082641;28;20054;-81
2023/01/30 05:48:23;;;;;;;0.10;0.10;;;;;;;8.98;64.76;101749.50;5079638;28;20120;-81
2023/01/30 05:50:51;;;;;;;0.10;0.10;;;;;;;8.98;64.79;101736.28;5084644;28;20115;-82
2023/01/30 05:53:18;;;;;;;0.10;0.10;;;;;;;8.91;64.87;101724.84;5086828;28;20055;-81
2023/01/30 05:55:44;;;;;;;0.13;0.13;;;;;;;8.90;64.54;101745.09;5074545;28;20493;-81
2023/01/30 05:58:10;;;;;;;0.10;0.10;;;;;;;8.89;64.67;101726.59;5078526;28;20036;-81
2023/01/30 06:00:36;;;;;;;0.10;0.10;;;;;;;8.85;65.38;101730.13;5073254;28;20048;-81
2023/01/30 06:03:03;;;;;;;0.10;0.10;;;;;;;8.90;64.98;101738.94;5082032;28;20032;-80
2023/01/30 06:05:29;;;;;;;0.30;0.30;;;;;;;8.71;64.72;101749.47;5082887;28;20038;-81
2023/01/30 06:07:55;;;;;;;0.10;0.10;;;;;;;8.76;64.71;101740.66;5093409;28;20174;-80
2023/01/30 06:10:21;;;;;;;0.13;0.13;;;;;;;8.77;64.77;101739.78;5093433;28;20055;-81
2023/01/30 06:12:47;;;;;;;0.10;0.10;;;;;;;8.69;64.89;101735.34;5082417;28;20316;-81
2023/01/30 06:15:13;;;;;;;0.10;0.10;;;;;;;8.70;64.32;101738.91;5079725;28;21248;-80
2023/01/30 06:17:42;;;;;;;0.30;0.30;;;;;;;8.77;64.48;101748.56;5077068;28;21815;-81
2023/01/30 06:20:10;;;;;;;0.10;0.10;;;;;;;8.66;64.26;101745.94;5073530;28;20789;-80
2023/01/30 06:22:37;;;;;;;0.10;0.10;;;;;;;8.60;63.83;101745.91;5077284;28;20123;-78
2023/01/30 06:25:04;;;;;;;0.57;0.57;;;;;;;8.58;64.04;101731.81;5081171;28;20028;-79
2023/01/30 06:27:30;;;;;;;0.10;0.10;;;;;;;8.57;63.62;101772.31;5076570;28;20083;-80
2023/01/30 06:29:56;;;;;;;0.10;0.10;;;;;;;8.58;63.40;101745.03;5081312;28;20047;-80
2023/01/30 06:32:22;;;;;;;0.13;0.13;;;;;;;8.47;63.42;101746.75;5071855;28;20064;-80
2023/01/30 06:34:48;;;;;;;0.10;0.10;;;;;;;8.48;63.35;101756.44;5062984;28;20040;-80
2023/01/30 06:37:14;;;;;;;2.25;2.08;;;;;;;8.41;62.98;101769.59;5072095;28;20081;-79
2023/01/30 06:39:40;;;;;;;0.35;0.35;;;;;;;8.49;62.84;101737.94;5071907;28;20056;-79
2023/01/30 06:42:07;;;;;;;0.20;0.20;;;;;;;8.36;62.23;101744.94;5074807;28;20051;-79
2023/01/30 06:44:33;;;;;;;0.10;0.10;;;;;;;8.37;61.88;101730.84;5071280;28;20078;-81
2023/01/30 06:47:00;;;;;;;2.10;2.00;;;;;;;8.33;61.70;101750.19;5073481;28;20045;-82
2023/01/30 06:49:26;;;;;;;0.10;0.10;;;;;;;8.42;61.36;101742.31;5081936;28;20048;-82
2023/01/30 06:51:52;;;;;;;0.10;0.10;;;;;;;8.47;61.21;101741.47;5091526;28;20032;-82
2023/01/30 06:54:18;;;;;;;0.10;0.10;;;;;;;8.39;60.64;101747.56;5085343;28;20112;-81
2023/01/30 06:56:44;;;;;;;0.10;0.10;;;;;;;8.39;60.98;101752.84;5075865;28;20028;-81
2023/01/30 06:59:10;;;;;;;0.10;0.10;;;;;;;8.29;60.63;101751.06;5081931;28;20039;-81
2023/01/30 07:01:37;;;;;;;0.10;0.10;;;;;;;8.27;60.33;101758.06;5074072;28;20036;-82
2023/01/30 07:04:03;;;;;;;0.10;0.10;;;;;;;8.27;59.46;101768.63;5080937;28;20028;-82
2023/01/30 07:06:29;;;;;;;0.10;0.10;;;;;;;8.23;59.01;101773.03;5077084;28;20532;-81
2023/01/30 07:08:57;;;;;;;0.10;0.10;;;;;;;8.12;58.70;101764.16;5078737;28;20046;-81
2023/01/30 07:11:24;;;;;;;0.10;0.10;;;;;;;8.23;59.12;101769.50;5076315;28;20082;-82
2023/01/30 07:13:50;;;;;;;0.10;0.10;;;;;;;8.26;58.17;101791.53;5075102;28;20056;-80
2023/01/30 07:16:16;;;;;;;0.40;0.40;;;;;;;8.23;59.01;101780.94;5072887;28;20033;-79
2023/01/30 07:18:43;;;;;;;0.10;0.10;;;;;;;8.29;58.41;101780.09;5074829;28;20142;-80
2023/01/30 07:21:09;;;;;;;0.10;0.10;;;;;;;8.26;58.62;101783.63;5070111;28;20036;-81
2023/01/30 07:23:35;;;;;;;0.10;0.10;;;;;;;8.21;58.00;101800.28;5074862;28;20486;-80
2023/01/30 07:26:04;;;;;;;0.10;0.10;;;;;;;8.21;58.22;101795.00;5085502;28;20482;-80
2023/01/30 07:28:30;;;;;;;0.52;0.52;;;;;;;8.19;58.90;101792.38;5084552;28;20029;-82
2023/01/30 07:31:00;;;;;;;0.22;0.22;;;;;;;8.14;58.47;101794.09;5079485;28;20032;-82
2023/01/30 07:33:26;;;;;;;0.10;0.10;;;;;;;8.23;58.72;101794.13;5062167;28;20040;-81
2023/01/30 07:35:54;;;;;;;0.10;0.10;;;;;;;8.15;58.98;101795.88;5064565;28;20101;-81
2023/01/30 07:38:20;;;;;;;0.50;0.50;;;;;;;8.28;58.95;101790.66;5068406;28;20025;-83
2023/01/30 07:40:46;;;;;;;0.93;0.85;;;;;;;8.21;58.49;101792.38;5066071;28;20044;-82
2023/01/30 07:43:13;;;;;;;0.10;0.10;;;;;;;8.26;58.80;101794.16;5072476;28;20033;-82
2023/01/30 07:45:45;;;;;;;0.10;0.10;;;;;;;8.23;58.12;101793.28;5068483;28;20085;-83
2023/01/30 07:48:14;;;;;;;0.10;0.10;;;;;;;8.28;58.58;101786.25;5088225;28;20044;-83
2023/01/30 07:50:41;;;;;;;0.35;0.35;;;;;;;8.24;58.56;101784.47;5081348;28;20028;-84
2023/01/30 07:53:09;;;;;;;0.20;0.20;;;;;;;8.21;58.79;101788.00;5085915;28;20033;-82
2023/01/30 07:55:38;;;;;;;0.10;0.10;;;;;;;8.26;58.72;101796.81;5072908;28;20032;-83
2023/01/30 07:58:04;;;;;;;0.10;0.10;;;;;;;8.31;58.10;101803.88;5071411;28;20043;-83
2023/01/30 08:00:31;;;;;;;0.10;0.10;;;;;;;8.21;58.54;101813.50;5077251;28;20086;-84
2023/01/30 08:02:57;;;;;;;0.10;0.10;;;;;;;8.31;58.25;101817.97;5075767;28;20180;-83
2023/01/30 08:05:24;;;;;;;0.10;0.10;;;;;;;8.25;58.85;101817.94;5073449;28;21133;-82
2023/01/30 08:07:50;;;;;;;1.23;1.20;;;;;;;8.31;58.40;101848.75;5065645;28;20025;-80
2023/01/30 08:10:16;;;;;;;0.15;0.15;;;;;;;8.41;58.11;101830.34;5076298;28;20049;-83
2023/01/30 08:12:43;;;;;;;0.05;0.05;;;;;;;8.46;58.32;101829.47;5083576;28;20121;-82
2023/01/30 08:15:09;;;;;;;0.05;0.05;;;;;;;8.49;57.94;101843.59;5073562;28;20068;-81
2023/01/30 08:17:36;;;;;;;0.10;0.10;;;;;;;8.41;58.08;101834.72;5072874;28;20025;-80
2023/01/30 08:20:03;;;;;;;0.00;0.00;;;;;;;8.51;58.00;101836.59;5069931;28;20051;-81
2023/01/30 08:22:29;;;;;;;0.10;0.10;;;;;;;8.54;58.08;101830.44;5083552;28;20036;-83
2023/01/30 08:24:55;;;;;;;0.10;0.10;;;;;;;8.54;57.78;101823.38;5076863;28;20090;-82
2023/01/30 08:27:21;;;;;;;0.10;0.10;;;;;;;8.60;58.30;101821.63;5079056;28;20447;-80
2023/01/30 08:29:48;;;;;;;3.83;3.40;;;;;;;8.57;57.97;101839.25;5081487;28;20031;-85
2023/01/30 08:32:14;;;;;;;0.10;0.10;;;;;;;8.49;58.39;101842.72;5084412;28;20024;-80
2023/01/30 08:34:40;;;;;;;0.10;0.10;;;;;;;8.60;57.96;101856.88;5082179;28;20032;-82
2023/01/30 08:37:09;;;;;;;0.10;0.10;;;;;;;8.66;57.88;101846.31;5083815;28;20032;-81
2023/01/30 08:39:35;;;;;;;2.45;2.28;;;;;;;8.71;57.37;101848.97;5076895;28;20033;-81
2023/01/30 08:42:01;;;;;;;0.10;0.10;;;;;;;8.68;57.61;101839.28;5081897;28;20086;-81
2023/01/30 08:44:27;;;;;;;0.10;0.10;;;;;;;8.63;57.74;101851.59;5084816;28;20390;-81
2023/01/30 08:46:53;;;;;;;0.45;0.45;;;;;;;8.77;57.55;101869.25;5086878;28;20020;-81
2023/01/30 08:49:19;;;;;;;0.43;0.43;;;;;;;8.62;57.52;101863.03;5087963;28;20044;-82
2023/01/30 08:51:45;;;;;;;0.10;0.10;;;;;;;8.73;57.74;101874.56;5079784;28;20481;-82
2023/01/30 08:54:12;;;;;;;4.00;3.60;;;;;;;8.84;57.25;101871.06;5079268;28;20089;-84
2023/01/30 08:56:38;;;;;;;0.10;0.10;;;;;;;8.96;56.90;101886.06;5074473;28;20028;-84
2023/01/30 08:59:05;;;;;;;0.15;0.15;;;;;;;8.95;57.07;101879.00;5080023;28;20028;-83
2023/01/30 09:01:31;;;;;;;0.10;0.10;;;;;;;9.03;57.07;101895.78;5074809;28;20028;-80
2023/01/30 09:03:57;;;;;;;0.10;0.10;;;;;;;9.01;56.76;101898.44;5073406;28;20036;-78
2023/01/30 09:06:23;;;;;;;4.18;2.17;;;;;;;9.03;56.08;101909.91;5070031;28;20453;-79
2023/01/30 09:08:50;;;;;;;0.10;0.10;;;;;;;9.14;55.93;101901.97;5076941;28;20040;-78
2023/01/30 09:11:16;;;;;;;0.22;0.22;;;;;;;9.19;55.67;101896.72;5064744;28;20017;-79
2023/01/30 09:13:43;;;;;;;0.17;0.17;;;;;;;9.13;56.08;101899.34;5073978;28;20029;-80
2023/01/30 09:16:11;;;;;;;0.10;0.10;;;;;;;9.36;55.79;101897.63;5062133;28;20033;-79
2023/01/30 09:18:42;;;;;;;0.20;0.20;;;;;;;9.38;55.73;101901.19;5065241;28;20088;-83
2023/01/30 09:21:10;;;;;;;0.85;0.85;;;;;;;9.36;56.00;101916.16;5068521;28;20038;-82
2023/01/30 09:23:39;;;;;;;0.10;0.10;;;;;;;9.31;56.03;101917.91;5086059;28;20025;-81
2023/01/30 09:26:05;;;;;;;0.10;0.10;;;;;;;9.37;55.53;101932.88;5077885;28;20103;-81
2023/01/30 09:28:33;;;;;;;1.38;1.27;;;;;;;9.34;56.04;101919.66;5072780;28;20028;-80
2023/01/30 09:31:00;;;;;;;0.38;0.38;;;;;;;9.39;55.51;101929.41;5062693;28;20037;-81
2023/01/30 09:33:27;;;;;;;0.08;0.08;;;;;;;9.38;55.90;101911.75;5072057;28;20082;-80
2023/01/30 09:35:54;;;;;;;0.30;0.30;;;;;;;9.32;56.29;101917.03;5065275;28;20028;-82
2023/01/30 09:38:20;;;;;;;4.15;1.65;;;;;;;9.45;56.03;101917.94;5061180;28;20017;-79
2023/01/30 09:44:00;;;;;;;0.10;0.10;;;;;;;9.38;55.68;101958.47;5066198;27;1883292;-81
2023/01/30 09:49:29;;;;;;;0.10;0.10;;;;;;;9.43;55.46;101953.19;5107418;27;1189870;-80
2023/01/30 09:52:20;;;;;;;0.10;0.10;;;;;;;9.60;55.33;101925.00;5123665;27;20049;-81
2023/01/30 09:54:46;;;;;;;4.53;2.50;;;;;;;9.46;55.72;101929.38;5123394;28;20062;-80
2023/01/30 09:57:19;;;;;;;0.68;0.68;;;;;;;9.53;55.70;101944.41;5126622;28;20100;-81
2023/01/30 10:00:10;;;;;;;0.15;0.15;;;;;;;9.51;55.81;101957.63;5124583;28;20050;-82
2023/01/30 10:02:49;;;;;;;0.28;0.28;;;;;;;9.41;55.53;101952.31;5129546;28;20027;-81
2023/01/30 10:05:15;;;;;;;0.10;0.10;;;;;;;9.57;55.58;101964.72;5132475;27;20028;-81
2023/01/30 10:07:55;;;;;;;0.10;0.10;;;;;;;9.71;55.87;101972.66;5128124;28;20039;-81
2023/01/30 10:10:39;;;;;;;0.32;0.32;;;;;;;9.62;56.07;101973.53;5121285;27;20035;-82
2023/01/30 10:13:45;;;;;;;4.75;2.22;;;;;;;9.67;55.94;101965.59;5121485;27;20037;-79
2023/01/30 10:16:45;;;;;;;0.20;0.20;;;;;;;9.56;55.94;101981.47;5118984;28;20111;-81
2023/01/30 10:19:26;;;;;;;0.00;0.00;;;;;;;9.60;55.70;101980.56;5121831;28;20031;-79
2023/01/30 10:22:24;;;;;;;0.10;0.10;;;;;;;9.69;55.78;102003.53;5124624;28;20019;-81
2023/01/30 10:27:30;;;;;;;0.17;0.17;;;;;;;9.60;55.12;102004.38;5082063;27;1155216;-81
2023/01/30 10:30:00;;;;;;;0.03;0.03;;;;;;;9.60;55.56;102009.69;5125567;27;20299;-80
2023/01/30 10:32:33;;;;;;;0.10;0.10;;;;;;;9.64;55.50;102002.63;5120529;28;20031;-81
2023/01/30 10:35:06;;;;;;;0.10;0.10;;;;;;;9.78;55.32;101992.06;5099333;28;20097;-81
2023/01/30 10:37:50;;;;;;;0.85;0.55;;;;;;;9.98;54.82;102003.59;5097251;28;20016;-79
2023/01/30 10:40:25;;;;;;;2.83;1.58;;;;;;;10.14;54.82;102014.19;5087453;28;20032;-82
2023/01/30 10:43:02;;;;;;;0.55;0.55;;;;;;;10.06;54.54;102016.84;5096428;28;20503;-80
2023/01/30 10:45:47;;;;;;;0.10;0.10;;;;;;;9.91;54.16;102007.09;5103235;28;20173;-79
2023/01/30 10:48:44;;;;;;;0.10;0.10;;;;;;;10.14;54.26;102003.59;5105771;28;20049;-81
2023/01/30 10:51:50;;;;;;;0.10;0.10;;;;;;;10.13;54.32;101996.53;5104561;28;20027;-81
2023/01/30 10:54:25;;;;;;;0.10;0.10;;;;;;;10.09;54.55;102006.22;5101775;28;20380;-79
2023/01/30 10:57:14;;;;;;;0.30;0.30;;;;;;;10.04;55.04;102002.69;5096085;28;20393;-82
2023/01/30 11:05:19;;;;;;;0.10;0.10;;;;;;;9.94;55.09;102017.69;5112452;27;1178045;-83
2023/01/30 11:07:47;;;;;;;0.10;0.10;;;;;;;9.85;55.21;102028.28;5121903;28;20040;-81
2023/01/30 11:10:19;;;;;;;0.10;0.10;;;;;;;9.97;55.33;102012.41;5119390;28;20031;-80
2023/01/30 11:12:45;;;;;;;0.13;0.13;;;;;;;9.95;55.39;102016.81;5122912;28;20031;-80
2023/01/30 11:15:11;;;;;;;0.10;0.10;;;;;;;9.89;55.65;102019.44;5116610;28;20379;-81
2023/01/30 11:17:41;;;;;;;0.10;0.10;;;;;;;9.96;55.68;102015.06;5118163;28;20398;-80
2023/01/30 11:20:18;;;;;;;0.10;0.10;;;;;;;9.95;55.56;102024.75;5116202;28;20032;-81
2023/01/30 11:22:48;;;;;;;0.17;0.17;;;;;;;9.84;55.98;102005.31;5113665;28;20032;-82
2023/01/30 11:25:18;;;;;;;0.10;0.10;;;;;;;9.87;55.65;102002.69;5117025;28;20110;-80
2023/01/30 11:27:54;;;;;;;0.10;0.10;;;;;;;10.04;55.55;102008.91;5130909;28;20127;-81
2023/01/30 11:30:25;;;;;;;0.10;0.10;;;;;;;9.96;55.57;102013.28;5119976;27;20395;-81
2023/01/30 11:33:12;;;;;;;0.10;0.10;;;;;;;9.97;56.08;102025.66;5126409;28;20073;-81
2023/01/30 11:36:00;;;;;;;0.10;0.10;;;;;;;10.09;55.64;102015.94;5129366;28;20023;-81
2023/01/30 11:38:33;;;;;;;0.80;0.80;;;;;;;10.06;55.76;102026.56;5140832;27;20028;-77
2023/01/30 11:43:43;;;;;;;0.85;0.85;;;;;;;10.20;55.08;102015.09;5099815;27;20397;-81
2023/01/30 11:46:14;;;;;;;0.10;0.10;;;;;;;10.35;55.10;102008.00;5085507;28;20040;-80
2023/01/30 11:49:02;;;;;;;0.77;0.73;;;;;;;10.45;55.44;102014.22;5080804;28;20392;-80
2023/01/30 11:51:32;;;;;;;0.50;0.50;;;;;;;10.28;54.95;102015.09;5083939;28;20020;-79
2023/01/30 11:54:04;;;;;;;0.10;0.10;;;;;;;10.47;54.66;101991.28;5084843;28;20055;-80
2023/01/30 12:02:03;;;;;;;0.40;0.40;;;;;;;10.52;54.33;101993.00;5093966;27;20398;-80
2023/01/30 12:04:29;;;;;;;0.10;0.10;;;;;;;10.38;54.36;102008.06;5086100;28;20440;-81
2023/01/30 12:07:19;;;;;;;0.40;0.40;;;;;;;10.59;53.93;102019.50;5083884;28;20035;-81
2023/01/30 12:09:45;;;;;;;0.20;0.20;;;;;;;10.44;53.70;102028.34;5081129;28;20016;-80
2023/01/30 12:12:33;;;;;;;0.00;0.00;;;;;;;10.47;53.77;102038.97;5085190;28;20048;-82
2023/01/30 12:23:18;;;;;;;2.92;2.75;;;;;;;10.48;53.55;102011.56;5114332;27;20391;-80
2023/01/30 12:25:57;;;;;;;0.10;0.10;;;;;;;10.67;53.98;102029.22;5097339;28;20022;-78
2023/01/30 12:28:42;;;;;;;0.10;0.10;;;;;;;10.70;53.02;102014.19;5094267;28;20020;-75
2023/01/30 12:31:17;;;;;;;0.13;0.13;;;;;;;10.70;52.08;102004.47;5097418;28;20024;-77
2023/01/30 12:33:43;;;;;;;0.10;0.10;;;;;;;10.73;51.77;102020.38;5093058;28;20097;-81
2023/01/30 12:42:17;;;;;;;0.10;0.10;;;;;;;10.57;52.91;102030.13;5107854;27;21130;-78
2023/01/30 12:45:09;;;;;;;0.03;0.03;;;;;;;10.50;53.25;102049.53;5102701;28;20043;-78
2023/01/30 12:50:50;;;;;;;1.30;1.20;;;;;;;10.60;53.54;102035.41;5091099;27;1180663;-78
2023/01/30 12:53:50;;;;;;;0.10;0.10;;;;;;;10.59;53.27;102041.59;5131004;28;20043;-77
2023/01/30 13:02:07;;;;;;;0.10;0.10;;;;;;;10.54;53.66;102031.88;5098775;27;1165998;-77